Time;durP1;ratioP1;P1;durP2;ratioP2;P2;SDS_P1;SDS_P2;PMS_P1;PMS_P2;Temp;Humidity;BMP_temperature;BMP_pressure;BME280_temperature;BME280_humidity;BME280_pressure;Samples;Min_cycle;Max_cycle;Signal;HPM_P1;HPM_P2
2022/06/26 00:01:41;;;;;;;4.47;2.65;;;;;;;;;;5012139;28;20378;-69
2022/06/26 00:04:06;;;;;;;3.88;2.40;;;;;;;;;;5011890;28;20363;-70
2022/06/26 00:06:31;;;;;;;3.35;2.22;;;;;;;;;;5029627;28;20514;-70
2022/06/26 00:08:57;;;;;;;6.78;2.65;;;;;;;;;;5030087;28;20085;-70
2022/06/26 00:11:22;;;;;;;3.40;2.50;;;;;;;;;;5029707;28;20089;-69
2022/06/26 00:13:48;;;;;;;3.97;2.47;;;;;;;;;;5029209;28;20423;-69
2022/06/26 00:16:13;;;;;;;4.25;2.30;;;;;;;;;;5029592;28;20442;-70
2022/06/26 00:18:41;;;;;;;3.97;2.15;;;;;;;;;;5011183;28;20412;-70
2022/06/26 00:21:06;;;;;;;3.55;2.40;;;;;;;;;;5011542;28;20035;-70
2022/06/26 00:23:32;;;;;;;5.15;2.72;;;;;;;;;;5011367;28;20443;-69
2022/06/26 00:25:57;;;;;;;3.33;2.15;;;;;;;;;;5027360;28;20460;-69
2022/06/26 00:28:23;;;;;;;4.60;2.28;;;;;;;;;;5030260;28;20040;-70
2022/06/26 00:30:48;;;;;;;3.38;1.77;;;;;;;;;;5028883;28;20085;-69
2022/06/26 00:33:14;;;;;;;4.68;2.38;;;;;;;;;;4994505;28;20477;-70
2022/06/26 00:35:40;;;;;;;3.90;1.98;;;;;;;;;;5010352;28;20323;-70
2022/06/26 00:38:05;;;;;;;4.30;2.20;;;;;;;;;;5029438;28;20348;-69
2022/06/26 00:40:31;;;;;;;3.03;2.10;;;;;;;;;;5029045;28;20416;-69
2022/06/26 00:42:56;;;;;;;3.03;1.90;;;;;;;;;;5028927;28;20055;-70
2022/06/26 00:45:22;;;;;;;3.40;1.98;;;;;;;;;;5010724;28;20392;-69
2022/06/26 00:47:47;;;;;;;4.55;1.88;;;;;;;;;;5011390;28;20443;-71
2022/06/26 00:50:13;;;;;;;4.20;2.03;;;;;;;;;;5029281;28;20126;-70
2022/06/26 00:52:39;;;;;;;3.13;2.15;;;;;;;;;;5010813;28;20454;-70
2022/06/26 00:55:05;;;;;;;3.20;2.15;;;;;;;;;;5028723;28;20331;-70
2022/06/26 00:57:31;;;;;;;3.88;1.98;;;;;;;;;;4843026;28;5001008;-70
2022/06/26 00:59:56;;;;;;;2.50;1.90;;;;;;;;;;5010490;28;20127;-70
2022/06/26 01:02:22;;;;;;;3.10;2.10;;;;;;;;;;5008586;28;20384;-70
2022/06/26 01:04:48;;;;;;;2.63;1.80;;;;;;;;;;5010414;28;20450;-69
2022/06/26 01:07:14;;;;;;;4.95;2.53;;;;;;;;;;5010759;28;20354;-70
2022/06/26 01:09:39;;;;;;;3.33;2.10;;;;;;;;;;5010270;28;20169;-70
2022/06/26 01:12:06;;;;;;;2.78;1.65;;;;;;;;;;5028486;28;20119;-69
2022/06/26 01:14:31;;;;;;;3.53;1.98;;;;;;;;;;5028313;28;20465;-70
2022/06/26 01:16:59;;;;;;;4.05;2.33;;;;;;;;;;5028294;28;20427;-70
2022/06/26 01:19:25;;;;;;;2.67;1.95;;;;;;;;;;5010030;28;20318;-70
2022/06/26 01:21:50;;;;;;;2.83;2.08;;;;;;;;;;5009988;28;20457;-70
2022/06/26 01:24:16;;;;;;;4.60;2.75;;;;;;;;;;5028658;28;20431;-70
2022/06/26 01:26:41;;;;;;;3.25;1.83;;;;;;;;;;5010199;28;20331;-70
2022/06/26 01:29:07;;;;;;;2.22;1.77;;;;;;;;;;5010155;28;20118;-69
2022/06/26 01:31:34;;;;;;;4.72;2.30;;;;;;;;;;5028054;28;20374;-70
2022/06/26 01:34:02;;;;;;;2.65;1.90;;;;;;;;;;5028045;28;20524;-69
2022/06/26 01:36:28;;;;;;;3.85;2.03;;;;;;;;;;5010391;28;20020;-70
2022/06/26 01:38:53;;;;;;;2.88;2.00;;;;;;;;;;5031259;28;20051;-69
2022/06/26 01:41:18;;;;;;;2.25;1.60;;;;;;;;;;5014154;28;20381;-70
2022/06/26 01:43:44;;;;;;;2.55;1.92;;;;;;;;;;5032412;28;20473;-71
2022/06/26 01:46:09;;;;;;;3.10;1.88;;;;;;;;;;5014412;28;20024;-70
2022/06/26 01:48:37;;;;;;;3.13;1.95;;;;;;;;;;4998089;28;20474;-70
2022/06/26 01:51:03;;;;;;;4.13;1.98;;;;;;;;;;5014224;28;20386;-72
2022/06/26 01:53:29;;;;;;;3.58;1.85;;;;;;;;;;5013945;28;20524;-70
2022/06/26 01:55:55;;;;;;;3.85;2.20;;;;;;;;;;5013955;28;20480;-69
2022/06/26 01:58:21;;;;;;;2.65;1.88;;;;;;;;;;5014255;28;20392;-69
2022/06/26 02:00:47;;;;;;;4.50;1.98;;;;;;;;;;5013757;28;20028;-69
2022/06/26 02:03:15;;;;;;;3.25;1.83;;;;;;;;;;5032840;28;20381;-69
2022/06/26 02:05:41;;;;;;;5.20;1.73;;;;;;;;;;5013913;28;20451;-70
2022/06/26 02:08:06;;;;;;;2.70;2.00;;;;;;;;;;5014908;28;20486;-70
2022/06/26 02:16:05;;;;;;;2.90;1.75;;;;;;;;;;5016244;28;20366;-71
2022/06/26 02:18:31;;;;;;;2.67;1.52;;;;;;;;;;5014150;28;20028;-69
2022/06/26 02:20:57;;;;;;;2.63;2.05;;;;;;;;;;5013462;28;20362;-70
2022/06/26 02:23:22;;;;;;;3.13;1.73;;;;;;;;;;5013066;28;20366;-71
2022/06/26 02:25:48;;;;;;;4.75;1.70;;;;;;;;;;5013730;28;20461;-70
2022/06/26 02:28:16;;;;;;;3.63;2.20;;;;;;;;;;5031328;28;20151;-70
2022/06/26 02:30:41;;;;;;;2.10;1.73;;;;;;;;;;5014339;28;20418;-71
2022/06/26 02:33:07;;;;;;;2.63;1.70;;;;;;;;;;5012907;28;20887;-69
2022/06/26 02:35:33;;;;;;;4.35;1.83;;;;;;;;;;5031175;28;20403;-70
2022/06/26 02:37:58;;;;;;;2.63;1.52;;;;;;;;;;5031352;28;20392;-70
2022/06/26 02:40:25;;;;;;;3.55;1.55;;;;;;;;;;5032078;28;20442;-70
2022/06/26 02:42:51;;;;;;;2.45;1.65;;;;;;;;;;5013527;28;20332;-70
2022/06/26 02:45:17;;;;;;;2.60;1.85;;;;;;;;;;5013094;28;20422;-70
2022/06/26 02:47:43;;;;;;;2.38;1.65;;;;;;;;;;5012490;28;20028;-70
2022/06/26 02:50:09;;;;;;;2.58;1.83;;;;;;;;;;5013841;28;20496;-70
2022/06/26 02:52:35;;;;;;;2.72;1.77;;;;;;;;;;5031649;28;20330;-70
2022/06/26 02:55:00;;;;;;;2.85;1.90;;;;;;;;;;5012665;28;20373;-70
2022/06/26 02:57:26;;;;;;;2.25;1.52;;;;;;;;;;5030906;28;20427;-70
2022/06/26 02:59:52;;;;;;;3.05;1.80;;;;;;;;;;5031961;28;20028;-70
2022/06/26 03:02:17;;;;;;;2.88;1.90;;;;;;;;;;5030275;28;20342;-71
2022/06/26 03:04:43;;;;;;;3.42;1.63;;;;;;;;;;5031313;28;20020;-70
2022/06/26 03:07:08;;;;;;;1.90;1.60;;;;;;;;;;5012444;28;20427;-70
2022/06/26 03:09:34;;;;;;;2.58;1.98;;;;;;;;;;5013649;28;20024;-70
2022/06/26 03:11:59;;;;;;;4.05;1.70;;;;;;;;;;5029153;28;20474;-70
2022/06/26 03:14:24;;;;;;;4.00;1.48;;;;;;;;;;5031071;28;20415;-70
2022/06/26 03:16:50;;;;;;;3.03;1.85;;;;;;;;;;5012555;28;20366;-72
2022/06/26 03:19:15;;;;;;;2.80;1.83;;;;;;;;;;5030728;28;20316;-70
2022/06/26 03:21:40;;;;;;;2.95;1.65;;;;;;;;;;5030966;28;20359;-71
2022/06/26 03:24:06;;;;;;;3.20;1.77;;;;;;;;;;5030511;28;20428;-70
2022/06/26 03:26:33;;;;;;;2.40;1.77;;;;;;;;;;5030540;28;20063;-70
2022/06/26 03:28:59;;;;;;;3.10;1.65;;;;;;;;;;5030361;28;20461;-70
2022/06/26 03:31:24;;;;;;;3.15;1.67;;;;;;;;;;5012227;28;20403;-70
2022/06/26 03:33:50;;;;;;;3.28;2.03;;;;;;;;;;5030789;28;20431;-70
2022/06/26 03:36:16;;;;;;;5.15;1.50;;;;;;;;;;5011996;28;20024;-70
2022/06/26 03:38:42;;;;;;;2.80;1.85;;;;;;;;;;5012474;28;20449;-70
2022/06/26 03:41:08;;;;;;;4.07;1.80;;;;;;;;;;5029832;28;20427;-69
2022/06/26 03:43:33;;;;;;;2.83;1.95;;;;;;;;;;5012479;28;20457;-70
2022/06/26 03:45:58;;;;;;;3.60;1.75;;;;;;;;;;5030180;28;20399;-70
2022/06/26 03:48:24;;;;;;;3.88;1.73;;;;;;;;;;5011960;28;20480;-70
2022/06/26 03:50:50;;;;;;;2.40;1.90;;;;;;;;;;5030640;28;20411;-70
2022/06/26 03:53:16;;;;;;;3.20;1.75;;;;;;;;;;5030642;28;20470;-70
2022/06/26 03:55:41;;;;;;;2.33;1.70;;;;;;;;;;5030215;28;20636;-70
2022/06/26 03:58:07;;;;;;;2.40;1.90;;;;;;;;;;3938321;28;10000783;-69
2022/06/26 04:00:32;;;;;;;2.60;1.85;;;;;;;;;;5028365;28;20503;-69
2022/06/26 04:02:57;;;;;;;2.30;1.80;;;;;;;;;;5029618;28;20090;-70
2022/06/26 04:05:23;;;;;;;1.75;1.30;;;;;;;;;;5011457;28;20537;-70
2022/06/26 04:07:49;;;;;;;3.42;2.10;;;;;;;;;;5030093;28;20442;-69
2022/06/26 04:10:14;;;;;;;2.40;1.80;;;;;;;;;;5011451;28;20354;-70
2022/06/26 04:12:39;;;;;;;2.65;1.98;;;;;;;;;;5011686;28;20516;-70
2022/06/26 04:15:06;;;;;;;3.25;2.22;;;;;;;;;;5011499;28;20423;-70
2022/06/26 04:17:31;;;;;;;2.88;1.88;;;;;;;;;;5011269;28;20443;-70
2022/06/26 04:19:57;;;;;;;3.45;2.40;;;;;;;;;;5030412;28;20453;-70
2022/06/26 04:22:22;;;;;;;3.05;1.75;;;;;;;;;;5029542;28;20362;-69
2022/06/26 04:24:48;;;;;;;5.13;3.13;;;;;;;;;;5011006;28;20386;-69
2022/06/26 04:27:13;;;;;;;3.50;2.33;;;;;;;;;;5010204;28;20348;-70
2022/06/26 04:29:39;;;;;;;4.10;2.50;;;;;;;;;;5029225;28;20055;-69
2022/06/26 04:32:05;;;;;;;3.97;2.13;;;;;;;;;;5028528;28;20377;-69
2022/06/26 04:34:30;;;;;;;4.35;2.50;;;;;;;;;;5029142;28;20051;-69
2022/06/26 04:36:55;;;;;;;4.40;2.00;;;;;;;;;;5029423;28;20520;-70
2022/06/26 04:39:21;;;;;;;3.55;2.30;;;;;;;;;;5029176;28;20441;-69
2022/06/26 04:41:47;;;;;;;3.40;2.30;;;;;;;;;;5029014;28;20315;-69
2022/06/26 04:44:13;;;;;;;5.35;2.17;;;;;;;;;;5028689;28;20032;-69
2022/06/26 04:46:40;;;;;;;4.78;2.40;;;;;;;;;;5030035;28;20465;-70
2022/06/26 04:49:06;;;;;;;7.03;2.30;;;;;;;;;;5010471;28;20523;-69
2022/06/26 04:51:34;;;;;;;4.18;2.20;;;;;;;;;;5028767;28;20506;-69
2022/06/26 04:54:00;;;;;;;3.15;2.17;;;;;;;;;;5011225;28;20393;-69
2022/06/26 04:56:25;;;;;;;2.80;2.25;;;;;;;;;;5029064;28;20339;-70
2022/06/26 04:58:53;;;;;;;4.93;2.42;;;;;;;;;;5028421;28;20464;-69
2022/06/26 05:01:18;;;;;;;3.28;2.20;;;;;;;;;;5010687;28;20362;-69
2022/06/26 05:03:43;;;;;;;2.85;1.85;;;;;;;;;;5028939;28;20335;-70
2022/06/26 05:06:09;;;;;;;7.10;2.83;;;;;;;;;;5028496;28;20324;-70
2022/06/26 05:08:34;;;;;;;3.50;2.70;;;;;;;;;;5010473;28;20020;-69
2022/06/26 05:11:00;;;;;;;4.03;2.45;;;;;;;;;;5029551;28;20423;-70
2022/06/26 05:13:25;;;;;;;3.05;2.05;;;;;;;;;;5028915;28;20378;-69
2022/06/26 05:15:51;;;;;;;3.00;1.88;;;;;;;;;;5027025;28;20454;-69
2022/06/26 05:18:16;;;;;;;3.92;2.38;;;;;;;;;;5028488;28;20327;-69
2022/06/26 05:20:42;;;;;;;2.70;2.38;;;;;;;;;;5011172;28;20449;-69
2022/06/26 05:23:09;;;;;;;3.83;2.25;;;;;;;;;;5026888;28;20358;-69
2022/06/26 05:25:34;;;;;;;3.75;2.50;;;;;;;;;;5010969;28;20435;-69
2022/06/26 05:28:00;;;;;;;3.53;2.05;;;;;;;;;;5006761;28;20462;-69
2022/06/26 05:30:25;;;;;;;2.63;1.77;;;;;;;;;;5009107;28;20343;-70
2022/06/26 05:32:51;;;;;;;3.65;2.25;;;;;;;;;;5008582;28;20025;-69
2022/06/26 05:35:16;;;;;;;4.47;1.98;;;;;;;;;;5007967;28;20432;-69
2022/06/26 05:37:42;;;;;;;3.13;1.88;;;;;;;;;;5009368;28;20379;-70
2022/06/26 05:40:07;;;;;;;3.60;2.20;;;;;;;;;;5008363;28;20127;-69
2022/06/26 05:42:33;;;;;;;5.00;2.40;;;;;;;;;;5009464;28;20470;-69
2022/06/26 05:44:58;;;;;;;4.57;2.30;;;;;;;;;;5008031;28;20447;-70
2022/06/26 05:47:23;;;;;;;3.67;1.95;;;;;;;;;;4990454;28;20452;-69
2022/06/26 05:49:49;;;;;;;2.55;1.95;;;;;;;;;;5008328;28;20443;-69
2022/06/26 05:52:14;;;;;;;3.70;2.17;;;;;;;;;;5008741;28;20352;-69
2022/06/26 05:54:40;;;;;;;3.75;2.17;;;;;;;;;;5008108;28;20445;-68
2022/06/26 05:57:05;;;;;;;3.22;1.90;;;;;;;;;;5008247;28;20110;-70
2022/06/26 05:59:30;;;;;;;2.30;2.00;;;;;;;;;;5008978;28;20417;-69
2022/06/26 06:01:56;;;;;;;3.40;2.30;;;;;;;;;;5007913;28;20450;-68
2022/06/26 06:04:21;;;;;;;4.28;2.13;;;;;;;;;;5008287;28;20024;-69
2022/06/26 06:06:47;;;;;;;5.68;2.40;;;;;;;;;;5008179;28;20297;-69
2022/06/26 06:09:12;;;;;;;3.70;2.47;;;;;;;;;;5008162;28;20454;-69
2022/06/26 06:11:37;;;;;;;4.07;2.33;;;;;;;;;;4973141;28;20041;-69
2022/06/26 06:14:03;;;;;;;7.78;2.58;;;;;;;;;;5007890;28;20442;-69
2022/06/26 06:16:28;;;;;;;4.90;2.30;;;;;;;;;;5008807;28;20128;-70
2022/06/26 06:18:53;;;;;;;4.80;2.47;;;;;;;;;;5007850;28;20459;-68
2022/06/26 06:21:19;;;;;;;3.67;2.47;;;;;;;;;;4989773;28;20025;-69
2022/06/26 06:23:44;;;;;;;4.28;2.55;;;;;;;;;;5011276;28;20434;-68
2022/06/26 06:26:11;;;;;;;4.63;2.20;;;;;;;;;;5013247;28;20339;-68
2022/06/26 06:28:36;;;;;;;3.22;2.35;;;;;;;;;;5030257;28;20457;-69
2022/06/26 06:31:02;;;;;;;4.00;2.30;;;;;;;;;;5031211;28;20440;-69
2022/06/26 06:33:27;;;;;;;3.33;2.00;;;;;;;;;;5013337;28;20419;-68
2022/06/26 06:35:54;;;;;;;4.30;2.10;;;;;;;;;;5013540;28;20359;-69
2022/06/26 06:38:23;;;;;;;2.90;1.88;;;;;;;;;;5031298;28;20431;-69
2022/06/26 06:40:49;;;;;;;3.85;2.20;;;;;;;;;;5013220;28;20449;-69
2022/06/26 06:43:14;;;;;;;3.50;1.83;;;;;;;;;;5031303;28;20408;-68
2022/06/26 06:45:39;;;;;;;3.15;2.10;;;;;;;;;;5031419;28;20434;-69
2022/06/26 06:48:06;;;;;;;3.05;1.95;;;;;;;;;;5013930;28;20347;-69
2022/06/26 06:50:31;;;;;;;7.13;2.10;;;;;;;;;;5031193;28;20122;-68
2022/06/26 06:52:57;;;;;;;4.28;2.13;;;;;;;;;;5031186;28;20054;-69
2022/06/26 06:55:22;;;;;;;3.08;2.00;;;;;;;;;;5013135;28;20089;-68
2022/06/26 06:57:48;;;;;;;6.32;1.98;;;;;;;;;;5013377;28;20314;-68
2022/06/26 07:00:13;;;;;;;3.03;2.03;;;;;;;;;;5013714;28;20027;-69
2022/06/26 07:02:39;;;;;;;3.60;2.00;;;;;;;;;;5031000;28;20373;-69
2022/06/26 07:05:06;;;;;;;3.53;2.47;;;;;;;;;;5013373;28;20430;-68
2022/06/26 07:07:32;;;;;;;2.53;2.20;;;;;;;;;;5032413;28;20489;-69
2022/06/26 07:09:57;;;;;;;6.10;1.98;;;;;;;;;;5030451;28;20111;-68
2022/06/26 07:12:23;;;;;;;3.65;1.90;;;;;;;;;;5031021;28;20485;-68
2022/06/26 07:14:48;;;;;;;6.20;1.85;;;;;;;;;;5030794;28;20382;-70
2022/06/26 07:17:14;;;;;;;4.55;2.15;;;;;;;;;;5031429;28;20327;-68
2022/06/26 07:19:39;;;;;;;3.05;2.20;;;;;;;;;;5031627;28;20519;-69
2022/06/26 07:22:05;;;;;;;2.67;1.70;;;;;;;;;;5031201;28;20354;-70
2022/06/26 07:24:31;;;;;;;5.78;1.70;;;;;;;;;;5031339;28;20449;-68
2022/06/26 07:26:56;;;;;;;3.40;1.70;;;;;;;;;;5031196;28;20371;-68
2022/06/26 07:29:22;;;;;;;3.55;2.15;;;;;;;;;;5030963;28;20466;-68
2022/06/26 07:31:47;;;;;;;2.90;1.92;;;;;;;;;;5030182;28;20063;-69
2022/06/26 07:34:13;;;;;;;3.60;1.90;;;;;;;;;;5011954;28;20386;-68
2022/06/26 07:36:47;;;;;;;3.13;1.90;;;;;;;;;;5030141;28;20111;-68
2022/06/26 07:39:14;;;;;;;3.20;1.90;;;;;;;;;;5029895;28;20444;-69
2022/06/26 07:41:41;;;;;;;4.50;1.90;;;;;;;;;;5030289;28;20544;-68
2022/06/26 07:44:06;;;;;;;4.03;2.05;;;;;;;;;;5012811;28;20086;-69
2022/06/26 07:46:34;;;;;;;2.90;1.88;;;;;;;;;;5012172;28;20032;-68
2022/06/26 07:49:00;;;;;;;3.65;1.85;;;;;;;;;;5011611;28;20402;-68
2022/06/26 07:51:25;;;;;;;3.17;1.85;;;;;;;;;;5012262;28;20138;-69
2022/06/26 07:53:51;;;;;;;2.10;1.67;;;;;;;;;;5011714;28;20338;-68
2022/06/26 07:56:16;;;;;;;2.95;1.90;;;;;;;;;;5011846;28;20476;-69
2022/06/26 07:58:42;;;;;;;4.25;1.88;;;;;;;;;;5031211;28;20343;-68
2022/06/26 08:01:07;;;;;;;2.95;1.50;;;;;;;;;;5030184;28;20059;-68
2022/06/26 08:03:33;;;;;;;2.72;1.73;;;;;;;;;;5029654;28;20028;-68
2022/06/26 08:05:58;;;;;;;3.40;1.80;;;;;;;;;;5029527;28;20123;-68
2022/06/26 08:08:24;;;;;;;2.90;1.70;;;;;;;;;;5030491;28;20103;-68
2022/06/26 08:10:49;;;;;;;2.75;1.70;;;;;;;;;;5011826;28;20092;-67
2022/06/26 08:13:14;;;;;;;3.08;1.70;;;;;;;;;;5029333;28;20495;-68
2022/06/26 08:15:40;;;;;;;2.33;1.48;;;;;;;;;;5011607;28;20508;-69
2022/06/26 08:18:07;;;;;;;3.53;2.03;;;;;;;;;;5011506;28;20081;-68
2022/06/26 08:20:32;;;;;;;3.65;1.73;;;;;;;;;;5029518;28;20461;-69
2022/06/26 08:22:58;;;;;;;2.50;1.77;;;;;;;;;;5030200;28;20331;-68
2022/06/26 08:25:23;;;;;;;2.60;1.63;;;;;;;;;;5029921;28;20350;-68
2022/06/26 08:27:49;;;;;;;4.10;1.80;;;;;;;;;;5010443;28;20063;-68
2022/06/26 08:30:14;;;;;;;4.50;1.70;;;;;;;;;;5011371;28;20427;-68
2022/06/26 08:32:39;;;;;;;2.42;1.65;;;;;;;;;;5011082;28;20415;-69
2022/06/26 08:35:09;;;;;;;2.88;1.83;;;;;;;;;;5029440;28;20555;-68
2022/06/26 08:37:34;;;;;;;2.35;1.50;;;;;;;;;;5029335;28;20028;-68
2022/06/26 08:40:00;;;;;;;2.17;1.50;;;;;;;;;;5011078;28;20043;-68
2022/06/26 08:42:26;;;;;;;3.72;1.90;;;;;;;;;;5029281;28;20097;-67
2022/06/26 08:44:56;;;;;;;3.80;1.70;;;;;;;;;;5011245;28;20047;-68
2022/06/26 08:47:23;;;;;;;2.75;1.70;;;;;;;;;;5028813;28;20462;-68
2022/06/26 08:49:49;;;;;;;1.58;1.45;;;;;;;;;;5028906;28;20027;-69
2022/06/26 08:52:19;;;;;;;5.70;1.65;;;;;;;;;;5010715;28;20063;-68
2022/06/26 08:54:45;;;;;;;2.95;1.98;;;;;;;;;;5029065;28;20423;-68
2022/06/26 08:57:12;;;;;;;2.00;1.30;;;;;;;;;;4994688;28;20391;-68
2022/06/26 08:59:37;;;;;;;2.70;1.65;;;;;;;;;;5028889;28;20496;-68
2022/06/26 09:02:03;;;;;;;3.10;1.48;;;;;;;;;;5028976;28;20351;-68
2022/06/26 09:04:29;;;;;;;2.85;1.67;;;;;;;;;;5029387;28;20064;-68
2022/06/26 09:06:55;;;;;;;2.67;1.63;;;;;;;;;;5029044;28;20435;-68
2022/06/26 09:09:27;;;;;;;3.83;1.58;;;;;;;;;;5010970;28;20301;-68
2022/06/26 09:11:55;;;;;;;3.90;1.65;;;;;;;;;;5029484;28;20478;-69
2022/06/26 09:14:21;;;;;;;3.05;1.80;;;;;;;;;;5029154;28;20319;-67
2022/06/26 09:16:48;;;;;;;2.30;1.48;;;;;;;;;;5010931;28;20097;-68
2022/06/26 09:19:19;;;;;;;2.67;1.70;;;;;;;;;;5028707;28;20386;-68
2022/06/26 09:21:45;;;;;;;1.90;1.52;;;;;;;;;;5010848;28;20401;-68
2022/06/26 09:24:12;;;;;;;2.20;1.60;;;;;;;;;;5030409;28;20423;-68
2022/06/26 09:26:42;;;;;;;2.25;1.27;;;;;;;;;;5009938;28;20024;-68
2022/06/26 09:29:09;;;;;;;2.45;1.48;;;;;;;;;;5010498;28;20504;-67
2022/06/26 09:31:37;;;;;;;2.30;1.73;;;;;;;;;;5028402;28;20522;-68
2022/06/26 09:34:03;;;;;;;2.38;1.65;;;;;;;;;;5028458;28;20378;-68
2022/06/26 09:36:29;;;;;;;2.50;1.52;;;;;;;;;;5028859;28;20434;-68
2022/06/26 09:38:54;;;;;;;1.80;1.30;;;;;;;;;;5028625;28;20504;-68
2022/06/26 09:41:30;;;;;;;4.05;1.50;;;;;;;;;;5030128;28;20373;-67
2022/06/26 09:43:57;;;;;;;1.92;1.30;;;;;;;;;;5028546;28;20032;-68
2022/06/26 09:46:28;;;;;;;4.10;1.25;;;;;;;;;;5010601;28;20363;-68
2022/06/26 09:48:55;;;;;;;2.00;1.50;;;;;;;;;;5028412;28;20442;-68
2022/06/26 09:51:23;;;;;;;2.05;1.30;;;;;;;;;;5010608;28;20371;-68
2022/06/26 09:53:49;;;;;;;2.60;1.27;;;;;;;;;;5010000;28;20397;-68
2022/06/26 09:56:14;;;;;;;2.10;1.50;;;;;;;;;;5010272;28;20441;-68
2022/06/26 09:58:40;;;;;;;2.95;1.60;;;;;;;;;;5030183;28;20414;-68
2022/06/26 10:06:34;;;;;;;2.72;1.58;;;;;;;;;;5018182;28;20500;-69
2022/06/26 10:09:05;;;;;;;3.08;1.83;;;;;;;;;;5014126;28;20438;-68
2022/06/26 10:11:32;;;;;;;1.52;1.33;;;;;;;;;;5013755;28;20436;-68
2022/06/26 10:14:01;;;;;;;1.98;1.42;;;;;;;;;;5032694;28;20438;-68
2022/06/26 10:16:33;;;;;;;;;;;;;;;;;;5014598;28;20508;-68
2022/06/26 10:19:22;;;;;;;2.83;1.50;;;;;;;;;;5032545;28;20318;-68
2022/06/26 10:21:48;;;;;;;2.53;1.38;;;;;;;;;;5032582;28;20032;-68
2022/06/26 10:24:14;;;;;;;2.38;1.60;;;;;;;;;;5013746;28;20443;-68
2022/06/26 10:26:51;;;;;;;2.15;1.48;;;;;;;;;;5031225;28;20522;-68
2022/06/26 10:29:16;;;;;;;2.47;1.38;;;;;;;;;;5032706;28;20425;-68
2022/06/26 10:31:41;;;;;;;3.08;1.60;;;;;;;;;;5013339;28;20336;-68
2022/06/26 10:34:21;;;;;;;2.00;1.30;;;;;;;;;;5031682;28;20515;-67
2022/06/26 10:37:03;;;;;;;3.42;1.67;;;;;;;;;;5014291;28;20386;-69
2022/06/26 10:39:45;;;;;;;1.67;1.20;;;;;;;;;;5013481;28;20343;-70
2022/06/26 10:45:07;;;;;;;5.20;1.80;;;;;;;;;;5031717;28;20090;-68
2022/06/26 10:47:48;;;;;;;2.40;1.40;;;;;;;;;;5013394;28;20359;-69
2022/06/26 10:50:33;;;;;;;2.47;1.20;;;;;;;;;;5013038;28;20028;-69
2022/06/26 10:53:18;;;;;;;1.83;1.38;;;;;;;;;;5031138;28;20549;-68
2022/06/26 10:56:02;;;;;;;1.10;1.00;;;;;;;;;;5013688;28;20478;-69
2022/06/26 10:58:32;;;;;;;2.08;1.25;;;;;;;;;;5031625;28;20516;-69
2022/06/26 11:01:01;;;;;;;3.15;1.40;;;;;;;;;;5031166;28;20346;-69
2022/06/26 11:03:27;;;;;;;2.90;1.48;;;;;;;;;;5030840;28;20109;-69
2022/06/26 11:06:00;;;;;;;2.58;1.30;;;;;;;;;;5031375;28;20509;-71
2022/06/26 11:08:34;;;;;;;1.77;1.42;;;;;;;;;;5012592;28;20439;-68
2022/06/26 11:11:05;;;;;;;1.80;1.30;;;;;;;;;;5012645;28;20130;-68
2022/06/26 11:13:31;;;;;;;1.48;1.30;;;;;;;;;;5031242;28;20504;-69
2022/06/26 11:15:57;;;;;;;1.50;1.25;;;;;;;;;;5031160;28;20431;-69
2022/06/26 11:18:23;;;;;;;2.17;1.27;;;;;;;;;;5030722;28;20427;-69
2022/06/26 11:20:51;;;;;;;2.58;1.35;;;;;;;;;;5032209;28;20450;-68
2022/06/26 11:23:27;;;;;;;2.60;1.27;;;;;;;;;;5012653;28;20502;-68
2022/06/26 11:25:55;;;;;;;1.55;1.08;;;;;;;;;;4679331;28;10001483;-70
2022/06/26 11:28:30;;;;;;;1.83;1.25;;;;;;;;;;5029717;28;20489;-69
2022/06/26 11:30:56;;;;;;;2.60;0.90;;;;;;;;;;5030157;28;20024;-68
2022/06/26 11:33:27;;;;;;;1.02;0.90;;;;;;;;;;5013464;28;20028;-69
2022/06/26 11:35:53;;;;;;;1.58;1.15;;;;;;;;;;5012753;28;20563;-69
2022/06/26 11:38:19;;;;;;;4.70;1.20;;;;;;;;;;5030496;28;20447;-68
2022/06/26 11:40:46;;;;;;;2.28;1.20;;;;;;;;;;5012620;28;20340;-69
2022/06/26 11:43:13;;;;;;;1.63;1.20;;;;;;;;;;5012003;28;20422;-68
2022/06/26 11:45:40;;;;;;;1.02;0.93;;;;;;;;;;5011960;28;20407;-69
2022/06/26 11:48:17;;;;;;;1.42;1.10;;;;;;;;;;5031773;28;20423;-68
2022/06/26 11:50:49;;;;;;;1.10;0.88;;;;;;;;;;5011576;28;20355;-68
2022/06/26 11:53:23;;;;;;;1.33;1.00;;;;;;;;;;5030505;28;20434;-68
2022/06/26 11:55:52;;;;;;;1.13;0.90;;;;;;;;;;5011976;28;20507;-69
2022/06/26 11:58:21;;;;;;;3.33;1.25;;;;;;;;;;5030247;28;20442;-69
2022/06/26 12:00:47;;;;;;;1.00;0.90;;;;;;;;;;5032138;28;20377;-68
2022/06/26 12:03:14;;;;;;;3.72;0.80;;;;;;;;;;5030023;28;20024;-68
2022/06/26 12:05:42;;;;;;;1.40;1.00;;;;;;;;;;5012534;28;20050;-68
2022/06/26 12:08:16;;;;;;;1.30;1.15;;;;;;;;;;5030265;28;20043;-68
2022/06/26 12:10:42;;;;;;;2.55;1.10;;;;;;;;;;5012060;28;20327;-68
2022/06/26 12:13:07;;;;;;;1.38;1.02;;;;;;;;;;5029814;28;20032;-68
2022/06/26 12:15:34;;;;;;;1.20;0.90;;;;;;;;;;5029680;28;20478;-69
2022/06/26 12:18:01;;;;;;;1.00;0.80;;;;;;;;;;5011246;28;20547;-69
2022/06/26 12:20:34;;;;;;;1.48;0.88;;;;;;;;;;5010767;28;20336;-69
2022/06/26 12:23:00;;;;;;;1.42;1.15;;;;;;;;;;5011298;28;20359;-69
2022/06/26 12:25:31;;;;;;;2.00;1.20;;;;;;;;;;5027769;28;20320;-70
2022/06/26 12:27:57;;;;;;;2.97;1.35;;;;;;;;;;5029145;28;20454;-69
2022/06/26 12:30:33;;;;;;;1.40;0.95;;;;;;;;;;5030217;28;20028;-69
2022/06/26 12:32:59;;;;;;;1.17;1.00;;;;;;;;;;5030296;28;20170;-68
2022/06/26 12:35:28;;;;;;;0.95;0.85;;;;;;;;;;5011209;28;20350;-69
2022/06/26 12:37:55;;;;;;;1.25;1.05;;;;;;;;;;5011710;28;20491;-68
2022/06/26 12:40:20;;;;;;;1.42;1.13;;;;;;;;;;5011483;28;20461;-69
2022/06/26 12:42:46;;;;;;;1.23;0.90;;;;;;;;;;5029155;28;21311;-68
2022/06/26 12:45:12;;;;;;;1.98;1.20;;;;;;;;;;5029160;28;20381;-68
2022/06/26 12:47:37;;;;;;;2.67;1.33;;;;;;;;;;5010792;28;20365;-68
2022/06/26 12:50:03;;;;;;;2.28;0.90;;;;;;;;;;5028781;28;20364;-68
2022/06/26 12:52:29;;;;;;;1.52;1.00;;;;;;;;;;5011785;28;20517;-70
2022/06/26 12:54:55;;;;;;;1.88;0.98;;;;;;;;;;5029563;28;20317;-68
2022/06/26 12:57:20;;;;;;;1.80;1.30;;;;;;;;;;5029068;28;20426;-68
2022/06/26 12:59:46;;;;;;;1.13;0.98;;;;;;;;;;5029006;28;20132;-69
2022/06/26 13:02:11;;;;;;;1.83;1.25;;;;;;;;;;5028825;28;20024;-69
2022/06/26 13:04:37;;;;;;;1.27;1.10;;;;;;;;;;5030217;28;20351;-69
2022/06/26 13:07:03;;;;;;;1.27;0.93;;;;;;;;;;5010815;28;20427;-69
2022/06/26 13:09:28;;;;;;;2.45;0.98;;;;;;;;;;5028878;28;20453;-70
2022/06/26 13:11:54;;;;;;;1.77;1.15;;;;;;;;;;5029611;28;20439;-69
2022/06/26 13:14:19;;;;;;;1.95;0.88;;;;;;;;;;5028781;28;20024;-69
2022/06/26 13:16:44;;;;;;;1.20;1.10;;;;;;;;;;5026925;28;20046;-70
2022/06/26 13:19:10;;;;;;;1.48;0.98;;;;;;;;;;5010696;28;20326;-68
2022/06/26 13:21:36;;;;;;;1.08;0.90;;;;;;;;;;5026198;28;20079;-68
2022/06/26 13:24:03;;;;;;;3.33;0.85;;;;;;;;;;5029819;28;20020;-68
2022/06/26 13:26:28;;;;;;;4.70;1.38;;;;;;;;;;5028354;28;20435;-68
2022/06/26 13:28:54;;;;;;;1.45;1.23;;;;;;;;;;5010893;28;20331;-69
2022/06/26 13:31:19;;;;;;;2.28;1.17;;;;;;;;;;5029645;28;20107;-68
2022/06/26 13:33:44;;;;;;;1.88;0.95;;;;;;;;;;5035750;28;20316;-68
2022/06/26 13:36:10;;;;;;;2.35;1.35;;;;;;;;;;5035241;28;20361;-68
2022/06/26 13:38:36;;;;;;;1.75;1.30;;;;;;;;;;5017102;28;20437;-68
2022/06/26 13:41:01;;;;;;;1.65;1.25;;;;;;;;;;5004714;28;20450;-69
2022/06/26 13:43:27;;;;;;;1.50;1.10;;;;;;;;;;5035410;28;20390;-68
2022/06/26 13:45:53;;;;;;;1.30;1.15;;;;;;;;;;5017831;28;20408;-70
2022/06/26 13:48:18;;;;;;;5.00;1.05;;;;;;;;;;5034853;28;20495;-67
2022/06/26 13:50:43;;;;;;;1.60;1.05;;;;;;;;;;5034923;28;20435;-69
2022/06/26 13:53:09;;;;;;;1.75;1.00;;;;;;;;;;5016838;28;20055;-68
2022/06/26 13:55:35;;;;;;;1.95;1.30;;;;;;;;;;5035329;28;20388;-68
2022/06/26 13:58:00;;;;;;;1.10;0.85;;;;;;;;;;5034095;28;20489;-68
2022/06/26 14:00:25;;;;;;;1.77;1.15;;;;;;;;;;5034931;28;20464;-68
2022/06/26 14:02:51;;;;;;;1.38;1.10;;;;;;;;;;5017434;28;20328;-68
2022/06/26 14:05:16;;;;;;;2.33;1.20;;;;;;;;;;5034897;28;20420;-69
2022/06/26 14:07:41;;;;;;;5.38;1.13;;;;;;;;;;5034863;28;20503;-68
2022/06/26 14:10:07;;;;;;;1.25;0.90;;;;;;;;;;5034880;28;20346;-68
2022/06/26 14:12:33;;;;;;;3.83;1.10;;;;;;;;;;5034497;28;20058;-68
2022/06/26 14:14:58;;;;;;;1.35;1.02;;;;;;;;;;5016835;28;20473;-68
2022/06/26 14:17:24;;;;;;;2.10;1.27;;;;;;;;;;5016291;28;20423;-69
2022/06/26 14:19:49;;;;;;;1.75;1.20;;;;;;;;;;5035141;28;20326;-68
2022/06/26 14:27:42;;;;;;;1.65;1.25;;;;;;;;;;5019030;28;20055;-68
2022/06/26 14:30:08;;;;;;;3.35;1.17;;;;;;;;;;5034882;28;20427;-70
2022/06/26 14:32:34;;;;;;;2.30;1.10;;;;;;;;;;5034761;28;20454;-70
2022/06/26 14:35:00;;;;;;;1.27;0.90;;;;;;;;;;5016512;28;20059;-69
2022/06/26 14:37:26;;;;;;;1.30;1.20;;;;;;;;;;5034970;28;20683;-68
2022/06/26 14:39:51;;;;;;;1.83;1.27;;;;;;;;;;5034397;28;20341;-68
2022/06/26 14:42:17;;;;;;;3.15;1.40;;;;;;;;;;5016503;28;20103;-68
2022/06/26 14:44:42;;;;;;;1.80;1.17;;;;;;;;;;5031952;28;20031;-68
2022/06/26 14:47:07;;;;;;;2.63;1.23;;;;;;;;;;5013263;28;20328;-68
2022/06/26 14:49:33;;;;;;;1.58;1.35;;;;;;;;;;5031828;28;20067;-69
2022/06/26 14:51:58;;;;;;;2.55;1.40;;;;;;;;;;5031013;28;20465;-68
2022/06/26 14:54:24;;;;;;;1.30;1.10;;;;;;;;;;5032690;28;20457;-68
2022/06/26 14:56:49;;;;;;;1.55;1.17;;;;;;;;;;5032622;28;20408;-70
2022/06/26 14:59:15;;;;;;;1.25;1.05;;;;;;;;;;5031596;28;20418;-68